createdAt,value
2023-02-28T00:00:30.119Z,102030.19
2023-02-28T00:01:32.848Z,101984.38
2023-02-28T00:02:34.855Z,101891.63
2023-02-28T00:03:36.715Z,102031.91
2023-02-28T00:04:38.578Z,102033.38
2023-02-28T00:05:40.467Z,101980.25
2023-02-28T00:06:43.055Z,101959.88
2023-02-28T00:07:44.984Z,101967.34
2023-02-28T00:08:46.898Z,101974.41
2023-02-28T00:09:48.962Z,102040.06
2023-02-28T00:10:50.762Z,102034.31
2023-02-28T00:11:52.750Z,102009.03
2023-02-28T00:12:57.955Z,101996.59
2023-02-28T00:14:00.149Z,102021.44
2023-02-28T00:15:03.380Z,102041.53
2023-02-28T00:16:11.253Z,101951.19
2023-02-28T00:17:13.133Z,102010.63
2023-02-28T00:18:15.054Z,101873.38
2023-02-28T00:19:16.892Z,101872.34
2023-02-28T00:20:19.271Z,102040.00
2023-02-28T00:21:21.499Z,102013.88
2023-02-28T00:22:24.143Z,101886.00
2023-02-28T00:23:26.761Z,102017.28
2023-02-28T00:24:28.696Z,102002.50
2023-02-28T00:25:30.620Z,101993.13
2023-02-28T00:26:32.476Z,101845.47
2023-02-28T00:27:36.344Z,102056.25
2023-02-28T00:28:39.876Z,102023.50
2023-02-28T00:29:42.114Z,101889.13
2023-02-28T00:30:46.233Z,102002.03
2023-02-28T00:31:48.122Z,101959.59
2023-02-28T00:32:51.711Z,101993.50
2023-02-28T00:33:53.597Z,101970.91
2023-02-28T00:34:56.995Z,101997.38
2023-02-28T00:36:07.400Z,102054.44
2023-02-28T00:37:15.171Z,102037.63
2023-02-28T00:38:17.070Z,102059.66
2023-02-28T00:39:19.069Z,102022.59
2023-02-28T00:40:20.897Z,101924.50
2023-02-28T00:41:22.777Z,101900.19
2023-02-28T00:42:25.286Z,102011.44
2023-02-28T00:43:27.107Z,101940.56
2023-02-28T00:44:29.685Z,102046.75
2023-02-28T00:45:31.882Z,101854.72
2023-02-28T00:46:33.878Z,102018.28
2023-02-28T00:47:35.908Z,101942.16
2023-02-28T00:48:38.215Z,101945.41
2023-02-28T00:49:40.070Z,101822.91
2023-02-28T00:50:41.878Z,102001.38
2023-02-28T00:51:43.771Z,102012.56
2023-02-28T00:52:46.014Z,101981.03
2023-02-28T00:53:49.788Z,101935.94
2023-02-28T00:54:52.403Z,101950.09
2023-02-28T00:55:54.503Z,101998.81
2023-02-28T00:56:56.441Z,102000.66
2023-02-28T00:57:58.341Z,101971.25
2023-02-28T00:59:00.805Z,101946.06
2023-02-28T01:00:03.190Z,101945.66
2023-02-28T01:01:05.362Z,101946.69
2023-02-28T01:02:07.421Z,101949.47
2023-02-28T01:03:09.250Z,101967.84
2023-02-28T01:04:12.313Z,101829.19
2023-02-28T01:05:14.202Z,101993.72
2023-02-28T01:06:16.081Z,101919.31
2023-02-28T01:07:18.004Z,101907.38
2023-02-28T01:08:20.546Z,101831.41
2023-02-28T01:09:22.450Z,101927.09
2023-02-28T01:10:24.476Z,102014.28
2023-02-28T01:11:26.392Z,101985.19
2023-02-28T01:12:30.825Z,101959.34
2023-02-28T01:13:33.121Z,101990.22
2023-02-28T01:14:35.702Z,101807.28
2023-02-28T01:15:37.961Z,102010.72
2023-02-28T01:16:40.511Z,102004.47
2023-02-28T01:17:42.313Z,101964.72
2023-02-28T01:18:44.835Z,102010.00
2023-02-28T01:19:46.807Z,101858.06
2023-02-28T01:20:49.748Z,101976.91
2023-02-28T01:21:52.088Z,101967.47
2023-02-28T01:22:53.986Z,101872.34
2023-02-28T01:23:58.837Z,101978.38
2023-02-28T01:25:00.646Z,101854.44
2023-02-28T01:26:12.434Z,101884.97
2023-02-28T01:27:15.305Z,101973.34
2023-02-28T01:28:17.635Z,101884.31
2023-02-28T01:29:19.428Z,102005.94
2023-02-28T01:30:21.467Z,101886.88
2023-02-28T01:31:23.729Z,101981.81
2023-02-28T01:32:25.779Z,101992.06
2023-02-28T01:33:27.694Z,101978.59
2023-02-28T01:34:29.609Z,101874.94
2023-02-28T01:35:37.264Z,101980.19
2023-02-28T01:36:39.329Z,101997.59
2023-02-28T01:37:41.219Z,101958.28
2023-02-28T01:38:43.943Z,101971.97
2023-02-28T01:39:45.814Z,101902.63
2023-02-28T01:40:47.854Z,102005.13
2023-02-28T01:41:49.688Z,101996.13
2023-02-28T01:42:51.608Z,101981.69
2023-02-28T01:43:56.703Z,102023.59
2023-02-28T01:45:17.153Z,102034.31
2023-02-28T01:46:19.137Z,102012.84
2023-02-28T01:47:24.184Z,102001.69
2023-02-28T01:48:32.344Z,102044.91
2023-02-28T01:49:34.200Z,102021.56
2023-02-28T01:50:40.672Z,101991.88
2023-02-28T01:51:47.490Z,101991.25
2023-02-28T01:52:50.612Z,102001.06
2023-02-28T01:53:57.815Z,101984.09
2023-02-28T01:55:03.553Z,101916.38
2023-02-28T01:56:08.160Z,102061.91
2023-02-28T01:57:17.656Z,101966.25
2023-02-28T01:58:19.637Z,102055.69
2023-02-28T01:59:49.665Z,102042.84
2023-02-28T02:00:52.771Z,102023.50
2023-02-28T02:01:55.564Z,102030.34
2023-02-28T02:03:06.099Z,102014.63
2023-02-28T02:04:08.041Z,102016.22
2023-02-28T02:05:27.583Z,102019.13
2023-02-28T02:06:35.133Z,102018.34
2023-02-28T02:07:40.648Z,101949.00
2023-02-28T02:08:42.685Z,102035.91
2023-02-28T02:09:44.560Z,101860.50
2023-02-28T02:11:02.288Z,102041.88
2023-02-28T02:12:21.224Z,102021.63
2023-02-28T02:13:53.822Z,102056.94
2023-02-28T02:15:20.637Z,102072.53
2023-02-28T02:17:08.504Z,102067.81
2023-02-28T02:18:42.397Z,102049.72
2023-02-28T02:20:07.217Z,102058.19
2023-02-28T02:21:25.669Z,102056.50
2023-02-28T02:22:39.170Z,102049.16
2023-02-28T02:23:55.930Z,102055.88
2023-02-28T02:25:09.739Z,102045.41
2023-02-28T02:27:08.398Z,102053.53
2023-02-28T02:28:10.146Z,102056.50
2023-02-28T02:30:00.077Z,102034.31
2023-02-28T02:31:40.091Z,102051.13
2023-02-28T02:33:05.257Z,102040.44
2023-02-28T02:34:25.776Z,102056.72
2023-02-28T02:35:32.476Z,102050.75
2023-02-28T02:36:39.866Z,102012.16
2023-02-28T02:38:17.085Z,102041.25
2023-02-28T02:39:42.923Z,102062.31
2023-02-28T02:40:59.567Z,102029.66
2023-02-28T02:42:05.697Z,102022.41
2023-02-28T02:43:18.365Z,102011.19
2023-02-28T02:44:28.533Z,102067.38
2023-02-28T02:45:56.463Z,102070.69
2023-02-28T02:47:10.947Z,102045.19
2023-02-28T02:48:16.315Z,102038.00
2023-02-28T02:49:25.568Z,101892.88
2023-02-28T02:50:33.814Z,102065.66
2023-02-28T02:51:38.032Z,102041.13
2023-02-28T02:52:45.725Z,102041.69
2023-02-28T02:53:52.727Z,102007.50
2023-02-28T02:54:58.498Z,102041.59
2023-02-28T02:56:03.164Z,102042.31
2023-02-28T02:57:10.944Z,102058.28
2023-02-28T02:58:17.876Z,102068.56
2023-02-28T02:59:24.928Z,102030.16
2023-02-28T03:00:38.536Z,102016.69
2023-02-28T03:01:42.211Z,102034.41
2023-02-28T03:02:47.080Z,101988.06
2023-02-28T03:03:49.139Z,102066.63
2023-02-28T03:05:01.731Z,102057.88
2023-02-28T03:06:04.991Z,102077.22
2023-02-28T03:07:07.355Z,102045.63
2023-02-28T03:08:09.240Z,101940.25
2023-02-28T03:09:11.210Z,102033.78
2023-02-28T03:10:36.494Z,102049.38
2023-02-28T03:11:40.024Z,102022.66
2023-02-28T03:12:52.076Z,102032.59
2023-02-28T03:14:18.937Z,102091.22
2023-02-28T03:15:27.638Z,102098.03
2023-02-28T03:16:35.482Z,102083.09
2023-02-28T03:17:37.305Z,102085.88
2023-02-28T03:19:03.298Z,101987.88
2023-02-28T03:20:33.059Z,102094.16
2023-02-28T03:22:02.801Z,102072.72
2023-02-28T03:23:45.714Z,102094.16
2023-02-28T03:25:15.811Z,102029.22
2023-02-28T03:26:23.798Z,102031.69
2023-02-28T03:27:31.046Z,102052.00
2023-02-28T03:28:39.843Z,102036.88
2023-02-28T03:29:51.696Z,101941.66
2023-02-28T03:31:05.035Z,102026.28
2023-02-28T03:32:15.744Z,101927.50
2023-02-28T03:33:24.243Z,101917.78
2023-02-28T03:34:35.409Z,102037.94
2023-02-28T03:35:49.498Z,102063.47
2023-02-28T03:37:00.415Z,102074.97
2023-02-28T03:38:25.864Z,101979.59
2023-02-28T03:39:38.063Z,102092.09
2023-02-28T03:40:43.245Z,102058.56
2023-02-28T03:41:50.778Z,102053.25
2023-02-28T03:43:00.731Z,102028.75
2023-02-28T03:44:11.922Z,102101.91
2023-02-28T03:45:26.767Z,102052.50
2023-02-28T03:46:32.315Z,102027.94
2023-02-28T03:47:44.387Z,102081.53
2023-02-28T03:48:53.251Z,102050.28
2023-02-28T03:49:58.920Z,102117.00
2023-02-28T03:51:03.967Z,101953.13
2023-02-28T03:52:08.463Z,102123.53
2023-02-28T03:53:10.279Z,102120.88
2023-02-28T03:54:19.230Z,102114.78
2023-02-28T03:55:22.474Z,102104.47
2023-02-28T03:56:38.574Z,102054.84
2023-02-28T03:57:57.715Z,102089.16
2023-02-28T03:59:08.497Z,101972.25
2023-02-28T04:00:15.908Z,102122.34
2023-02-28T04:01:27.163Z,102094.94
2023-02-28T04:02:29.454Z,102135.72
2023-02-28T04:03:31.423Z,102133.72
2023-02-28T04:04:33.450Z,102010.38
2023-02-28T04:05:55.802Z,102088.97
2023-02-28T04:07:07.029Z,102114.19
2023-02-28T04:08:09.344Z,102152.66
2023-02-28T04:10:14.689Z,102117.09
2023-02-28T04:11:36.552Z,102080.13
2023-02-28T04:12:38.381Z,102077.09
2023-02-28T04:13:40.378Z,102153.72
2023-02-28T04:14:42.238Z,102079.47
2023-02-28T04:15:44.162Z,102129.81
2023-02-28T04:16:46.113Z,102118.25
2023-02-28T04:17:47.949Z,102104.59
2023-02-28T04:18:49.805Z,102149.66
2023-02-28T04:19:51.751Z,102148.63
2023-02-28T04:20:53.597Z,102111.56
2023-02-28T04:21:55.492Z,102164.72
2023-02-28T04:22:57.354Z,102146.50
2023-02-28T04:24:01.775Z,102129.41
2023-02-28T04:25:03.964Z,102128.63
2023-02-28T04:26:07.013Z,102120.94
2023-02-28T04:27:09.827Z,102114.72
2023-02-28T04:28:11.665Z,102135.16
2023-02-28T04:29:19.106Z,102157.56
2023-02-28T04:30:21.051Z,102137.06
2023-02-28T04:31:22.967Z,102071.69
2023-02-28T04:32:24.907Z,102149.25
2023-02-28T04:33:27.833Z,102124.69
2023-02-28T04:34:32.442Z,102161.00
2023-02-28T04:35:34.431Z,102101.38
2023-02-28T04:36:36.334Z,102117.50
2023-02-28T04:37:38.115Z,102130.78
2023-02-28T04:38:40.295Z,102107.59
2023-02-28T04:39:43.303Z,102134.94
2023-02-28T04:40:45.100Z,102113.47
2023-02-28T04:41:47.568Z,102095.50
2023-02-28T04:42:49.359Z,102137.31
2023-02-28T04:43:54.032Z,102128.53
2023-02-28T04:44:56.086Z,102138.88
2023-02-28T04:45:59.810Z,102157.34
2023-02-28T04:47:01.716Z,102139.97
2023-02-28T04:48:03.562Z,102137.53
2023-02-28T04:49:05.682Z,102116.22
2023-02-28T04:50:08.087Z,102083.63
2023-02-28T04:51:13.968Z,102159.19
2023-02-28T04:52:15.781Z,102142.19
2023-02-28T04:53:18.162Z,102054.16
2023-02-28T04:54:20.196Z,102163.56
2023-02-28T04:55:21.998Z,102099.25
2023-02-28T04:56:23.803Z,102122.03
2023-02-28T04:57:25.810Z,102152.78
2023-02-28T04:58:29.404Z,102094.22
2023-02-28T04:59:31.465Z,102131.72
2023-02-28T05:00:33.424Z,102067.44
2023-02-28T05:01:37.368Z,102114.44
2023-02-28T05:02:40.662Z,102048.44
2023-02-28T05:03:43.212Z,102124.91
2023-02-28T05:04:45.165Z,102167.22
2023-02-28T05:05:48.038Z,102134.50
2023-02-28T05:06:50.012Z,102094.81
2023-02-28T05:07:51.825Z,102127.34
2023-02-28T05:08:54.267Z,102102.66
2023-02-28T05:09:56.125Z,102103.19
2023-02-28T05:10:57.953Z,102070.19
2023-02-28T05:11:59.745Z,102153.66
2023-02-28T05:13:01.565Z,102016.47
2023-02-28T05:14:05.478Z,102130.66
2023-02-28T05:15:07.782Z,102127.47
2023-02-28T05:16:09.689Z,102155.81
2023-02-28T05:17:11.600Z,102155.88
2023-02-28T05:18:13.511Z,102193.97
2023-02-28T05:19:15.323Z,102158.25
2023-02-28T05:20:17.629Z,102177.41
2023-02-28T05:21:34.380Z,102174.63
2023-02-28T05:22:36.306Z,102202.59
2023-02-28T05:23:38.418Z,102207.97
2023-02-28T05:24:40.423Z,102206.25
2023-02-28T05:25:43.074Z,102190.88
2023-02-28T05:26:44.965Z,102023.75
2023-02-28T05:27:47.078Z,102200.16
2023-02-28T05:28:49.078Z,102123.19
2023-02-28T05:29:50.866Z,102180.84
2023-02-28T05:30:52.660Z,102174.28
2023-02-28T05:31:54.639Z,102165.75
2023-02-28T05:32:56.801Z,102190.31
2023-02-28T05:33:58.680Z,102016.81
2023-02-28T05:35:00.488Z,102127.69
2023-02-28T05:36:02.605Z,102157.28
2023-02-28T05:37:05.071Z,102069.97
2023-02-28T05:38:07.207Z,102116.16
2023-02-28T05:39:13.515Z,102062.59
2023-02-28T05:40:16.554Z,102127.25
2023-02-28T05:41:20.552Z,102117.50
2023-02-28T05:42:22.449Z,102138.25
2023-02-28T05:43:24.475Z,102122.09
2023-02-28T05:44:26.311Z,102031.09
2023-02-28T05:45:28.264Z,101994.16
2023-02-28T05:46:30.294Z,102033.91
2023-02-28T05:47:32.622Z,102122.03
2023-02-28T05:48:36.011Z,102151.41
2023-02-28T05:49:37.943Z,102134.28
2023-02-28T05:50:39.970Z,102095.50
2023-02-28T05:51:41.839Z,102184.09
2023-02-28T05:52:43.735Z,102050.88
2023-02-28T05:53:45.674Z,102190.31
2023-02-28T05:54:48.468Z,102069.97
2023-02-28T05:55:50.379Z,102151.31
2023-02-28T05:56:52.179Z,102171.84
2023-02-28T05:57:54.104Z,102146.09
2023-02-28T05:58:56.030Z,102132.47
2023-02-28T05:59:57.871Z,102119.09
2023-02-28T06:01:01.069Z,102145.97
2023-02-28T06:02:02.918Z,102145.13
2023-02-28T06:03:04.817Z,102171.84
2023-02-28T06:04:16.712Z,102171.50
2023-02-28T06:05:24.919Z,102113.16
2023-02-28T06:06:26.794Z,102150.16
2023-02-28T06:07:28.616Z,102103.84
2023-02-28T06:08:30.487Z,102140.38
2023-02-28T06:09:32.349Z,102180.91
2023-02-28T06:10:35.475Z,102186.47
2023-02-28T06:11:38.489Z,102147.34
2023-02-28T06:12:42.691Z,102161.31
2023-02-28T06:13:44.537Z,102117.00
2023-02-28T06:14:46.383Z,102086.00
2023-02-28T06:15:48.209Z,102067.44
2023-02-28T06:16:50.119Z,102053.50
2023-02-28T06:17:53.397Z,102147.94
2023-02-28T06:18:57.082Z,102113.66
2023-02-28T06:19:58.872Z,102187.47
2023-02-28T06:21:00.684Z,102074.63
2023-02-28T06:22:02.486Z,102202.03
2023-02-28T06:23:04.550Z,101996.78
2023-02-28T06:24:06.819Z,102151.75
2023-02-28T06:25:09.221Z,102157.50
2023-02-28T06:26:11.677Z,102148.75
2023-02-28T06:27:13.600Z,102145.19
2023-02-28T06:28:15.437Z,102163.66
2023-02-28T06:29:19.325Z,102097.84
2023-02-28T06:30:25.699Z,102157.56
2023-02-28T06:31:30.336Z,102182.22
2023-02-28T06:32:32.418Z,102152.50
2023-02-28T06:33:34.570Z,102112.34
2023-02-28T06:34:37.138Z,102061.97
2023-02-28T06:35:39.414Z,102059.63
2023-02-28T06:36:42.533Z,102222.81
2023-02-28T06:37:45.040Z,102188.41
2023-02-28T06:38:49.383Z,102177.03
2023-02-28T06:39:51.212Z,102186.25
2023-02-28T06:40:57.821Z,102175.53
2023-02-28T06:41:59.671Z,102175.19
2023-02-28T06:43:01.592Z,102191.69
2023-02-28T06:44:03.529Z,102115.00
2023-02-28T06:45:10.495Z,102175.56
2023-02-28T06:46:15.338Z,102184.44
2023-02-28T06:47:17.400Z,102151.66
2023-02-28T06:48:20.077Z,102180.47
2023-02-28T06:49:21.899Z,102049.16
2023-02-28T06:50:23.797Z,102193.56
2023-02-28T06:51:25.602Z,102164.63
2023-02-28T06:52:27.389Z,102107.84
2023-02-28T06:53:29.249Z,102160.00
2023-02-28T06:54:31.088Z,102136.34
2023-02-28T06:55:32.885Z,102200.72
2023-02-28T06:56:34.762Z,102201.13
2023-02-28T06:57:37.240Z,102183.41
2023-02-28T06:58:40.286Z,102161.75
2023-02-28T06:59:42.180Z,102118.34
2023-02-28T07:00:44.908Z,102183.56
2023-02-28T07:01:47.167Z,102213.00
2023-02-28T07:02:49.180Z,102100.16
2023-02-28T07:03:53.364Z,102037.81
2023-02-28T07:04:55.675Z,102203.00
2023-02-28T07:05:57.576Z,102157.84
2023-02-28T07:06:59.515Z,102162.63
2023-02-28T07:08:01.530Z,102137.88
2023-02-28T07:09:05.076Z,102197.97
2023-02-28T07:10:07.296Z,102147.50
2023-02-28T07:11:09.146Z,102148.59
2023-02-28T07:12:11.369Z,102177.00
2023-02-28T07:13:13.234Z,102067.22
2023-02-28T07:14:15.016Z,102105.91
2023-02-28T07:15:17.008Z,102156.63
2023-02-28T07:16:19.366Z,102205.22
2023-02-28T07:17:21.377Z,102081.91
2023-02-28T07:18:23.432Z,102208.75
2023-02-28T07:19:25.485Z,102167.03
2023-02-28T07:20:27.412Z,102158.50
2023-02-28T07:21:29.545Z,102154.25
2023-02-28T07:22:31.506Z,102149.63
2023-02-28T07:23:33.489Z,102027.41
2023-02-28T07:24:35.374Z,102108.41
2023-02-28T07:25:37.171Z,102132.19
2023-02-28T07:26:39.028Z,102063.66
2023-02-28T07:27:42.253Z,102110.59
2023-02-28T07:28:45.591Z,102054.31
2023-02-28T07:29:47.847Z,102107.91
2023-02-28T07:30:49.748Z,102105.25
2023-02-28T07:31:54.245Z,102088.91
2023-02-28T07:32:57.294Z,102106.94
2023-02-28T07:33:59.522Z,102138.91
2023-02-28T07:35:01.318Z,102128.69
2023-02-28T07:36:05.779Z,102161.34
2023-02-28T07:37:07.585Z,102122.56
2023-02-28T07:38:09.924Z,102133.78
2023-02-28T07:39:12.238Z,102129.75
2023-02-28T07:40:14.737Z,102128.44
2023-02-28T07:41:22.156Z,102152.06
2023-02-28T07:42:24.925Z,102163.91
2023-02-28T07:43:26.838Z,102131.34
2023-02-28T07:44:28.671Z,102130.00
2023-02-28T07:45:32.701Z,102110.88
2023-02-28T07:46:37.213Z,102120.16
2023-02-28T07:47:40.124Z,102100.03
2023-02-28T07:48:42.415Z,102108.56
2023-02-28T07:49:44.267Z,102140.28
2023-02-28T07:50:49.168Z,102122.59
2023-02-28T07:51:51.008Z,102106.00
2023-02-28T07:52:52.893Z,102114.16
2023-02-28T07:53:54.930Z,102129.75
2023-02-28T07:54:56.714Z,102095.50
2023-02-28T07:56:00.421Z,102139.75
2023-02-28T07:57:02.311Z,102098.56
2023-02-28T07:58:04.136Z,102127.22
2023-02-28T07:59:06.087Z,102109.44
2023-02-28T08:00:10.747Z,102130.00
2023-02-28T08:01:16.028Z,102138.81
2023-02-28T08:02:19.492Z,102102.34
2023-02-28T08:03:22.837Z,102133.56
2023-02-28T08:04:24.643Z,102110.66
2023-02-28T08:05:26.560Z,102132.72
2023-02-28T08:06:28.514Z,102095.78
2023-02-28T08:07:30.402Z,102085.91
2023-02-28T08:08:32.446Z,102128.34
2023-02-28T08:09:35.414Z,102122.09
2023-02-28T08:10:37.587Z,102142.56
2023-02-28T08:11:39.532Z,102116.84
2023-02-28T08:12:41.421Z,102074.56
2023-02-28T08:13:45.017Z,102096.50
2023-02-28T08:14:47.364Z,102137.34
2023-02-28T08:15:51.975Z,102133.69
2023-02-28T08:16:53.899Z,102089.66
2023-02-28T08:17:57.283Z,102050.91
2023-02-28T08:18:59.140Z,102121.59
2023-02-28T08:20:00.945Z,102147.19
2023-02-28T08:21:12.365Z,102157.81
2023-02-28T08:22:14.966Z,102146.59
2023-02-28T08:23:16.965Z,102149.78
2023-02-28T08:24:18.772Z,102157.09
2023-02-28T08:25:21.195Z,102134.88
2023-02-28T08:26:22.978Z,102113.91
2023-02-28T08:27:24.792Z,102112.78
2023-02-28T08:28:27.499Z,102151.72
2023-02-28T08:29:31.220Z,102079.41
2023-02-28T08:30:33.009Z,102085.50
2023-02-28T08:31:36.638Z,102091.88
2023-02-28T08:32:38.668Z,102098.47
2023-02-28T08:33:41.179Z,102121.75
2023-02-28T08:34:42.976Z,102120.41
2023-02-28T08:35:44.879Z,102116.88
2023-02-28T08:36:46.965Z,102113.31
2023-02-28T08:37:50.138Z,102077.50
2023-02-28T08:38:52.421Z,102064.47
2023-02-28T08:39:56.375Z,102046.69
2023-02-28T08:41:04.107Z,102075.06
2023-02-28T08:42:07.729Z,102098.94
2023-02-28T08:43:09.976Z,102091.78
2023-02-28T08:44:11.879Z,102044.72
2023-02-28T08:45:14.838Z,102053.63
2023-02-28T08:46:16.756Z,102037.28
2023-02-28T08:47:19.261Z,102061.06
2023-02-28T08:48:21.152Z,102094.69
2023-02-28T08:49:22.999Z,102063.88
2023-02-28T08:50:24.952Z,102074.56
2023-02-28T08:51:28.057Z,102082.72
2023-02-28T08:52:30.384Z,102097.97
2023-02-28T08:53:33.222Z,102123.47
2023-02-28T08:54:36.105Z,102101.38
2023-02-28T08:55:37.904Z,102067.50
2023-02-28T08:56:40.871Z,102067.38
2023-02-28T08:57:42.672Z,102086.38
2023-02-28T08:58:46.076Z,102056.28
2023-02-28T08:59:47.942Z,102112.75
2023-02-28T09:00:49.973Z,102053.38
2023-02-28T09:01:51.845Z,102080.44
2023-02-28T09:02:54.465Z,102066.56
2023-02-28T09:03:57.750Z,102083.13
2023-02-28T09:05:00.126Z,102050.47
2023-02-28T09:06:02.342Z,102062.53
2023-02-28T09:07:04.222Z,102030.72
2023-02-28T09:08:06.183Z,102059.97
2023-02-28T09:09:08.508Z,102041.31
2023-02-28T09:10:11.006Z,102057.41
2023-02-28T09:11:13.569Z,102070.81
2023-02-28T09:12:15.436Z,102089.59
2023-02-28T09:13:17.258Z,102094.06
2023-02-28T09:14:19.024Z,102048.00
2023-02-28T09:15:20.824Z,102066.06
2023-02-28T09:16:23.025Z,102056.03
2023-02-28T09:17:25.202Z,102106.50
2023-02-28T09:18:34.894Z,102062.75
2023-02-28T09:19:36.707Z,102085.56
2023-02-28T09:20:43.329Z,102062.28
2023-02-28T09:21:45.182Z,102064.34
2023-02-28T09:22:46.981Z,102073.50
2023-02-28T09:23:51.245Z,101996.97
2023-02-28T09:24:53.075Z,102045.34
2023-02-28T09:25:56.122Z,102056.31
2023-02-28T09:27:05.009Z,102025.34
2023-02-28T09:28:07.503Z,102035.34
2023-02-28T09:29:09.579Z,102085.78
2023-02-28T09:30:12.044Z,102065.81
2023-02-28T09:31:16.886Z,102091.28
2023-02-28T09:32:19.153Z,102072.16
2023-02-28T09:33:22.746Z,102116.25
2023-02-28T09:34:24.705Z,102108.69
2023-02-28T09:35:27.758Z,102074.94
2023-02-28T09:36:41.816Z,102084.81
2023-02-28T09:37:46.618Z,102095.53
2023-02-28T09:38:49.712Z,102104.31
2023-02-28T09:39:51.990Z,102098.94
2023-02-28T09:41:05.709Z,102083.84
2023-02-28T09:42:15.191Z,102071.66
2023-02-28T09:43:18.918Z,102096.03
2023-02-28T09:44:38.603Z,102083.84
2023-02-28T09:45:43.935Z,102069.22
2023-02-28T09:46:55.352Z,102074.69
2023-02-28T09:48:05.353Z,102120.88
2023-02-28T09:49:19.815Z,102113.81
2023-02-28T09:50:27.842Z,102129.66
2023-02-28T09:51:39.165Z,102149.41
2023-02-28T09:52:41.611Z,102160.03
2023-02-28T09:53:45.756Z,102127.94
2023-02-28T09:54:49.708Z,102162.81
2023-02-28T09:56:10.177Z,102157.69
2023-02-28T09:57:19.712Z,102166.22
2023-02-28T09:58:41.767Z,102165.00
2023-02-28T10:00:00.832Z,102140.88
2023-02-28T10:01:21.405Z,102174.66
2023-02-28T10:02:50.740Z,102162.94
2023-02-28T10:04:00.023Z,102128.56
2023-02-28T10:05:27.778Z,102142.25
2023-02-28T10:06:51.324Z,102147.50
2023-02-28T10:07:56.136Z,102156.75
2023-02-28T10:09:10.415Z,102129.16
2023-02-28T10:10:35.972Z,102167.47
2023-02-28T10:11:40.811Z,102152.31
2023-02-28T10:12:46.703Z,102176.69
2023-02-28T10:13:52.264Z,102172.44
2023-02-28T10:14:56.274Z,102180.59
2023-02-28T10:16:06.778Z,102175.22
2023-02-28T10:17:17.920Z,102141.59
2023-02-28T10:18:25.796Z,102186.59
2023-02-28T10:19:49.253Z,102192.06
2023-02-28T10:20:52.766Z,102166.94
2023-02-28T10:22:00.813Z,102193.66
2023-02-28T10:23:17.658Z,102181.97
2023-02-28T10:24:49.353Z,102183.34
2023-02-28T10:26:01.121Z,102168.00
2023-02-28T10:27:13.280Z,102134.19
2023-02-28T10:28:17.656Z,102166.34
2023-02-28T10:29:19.445Z,102132.81
2023-02-28T10:30:21.453Z,102163.44
2023-02-28T10:31:26.024Z,102188.16
2023-02-28T10:32:32.416Z,102198.88
2023-02-28T10:33:36.557Z,102180.94
2023-02-28T10:34:38.368Z,102212.09
2023-02-28T10:35:40.272Z,102198.63
2023-02-28T10:36:44.820Z,102217.44
2023-02-28T10:37:49.837Z,102196.44
2023-02-28T10:38:51.806Z,102206.72
2023-02-28T10:39:54.168Z,102186.44
2023-02-28T10:41:10.933Z,102140.72
2023-02-28T10:42:27.156Z,102157.34
2023-02-28T10:43:29.341Z,102184.00
2023-02-28T10:44:31.214Z,102201.34
2023-02-28T10:45:38.259Z,102213.59
2023-02-28T10:46:42.131Z,102176.34
2023-02-28T10:47:57.087Z,102210.66
2023-02-28T10:49:07.769Z,102213.19
2023-02-28T10:50:28.596Z,102209.19
2023-02-28T10:51:38.260Z,102215.63
2023-02-28T10:52:41.884Z,102220.03
2023-02-28T10:54:02.882Z,102220.16
2023-02-28T10:55:17.278Z,102227.34
2023-02-28T10:56:24.374Z,102227.00
2023-02-28T10:57:26.288Z,102197.56
2023-02-28T10:58:43.163Z,102168.16
2023-02-28T10:59:45.480Z,102237.81
2023-02-28T11:00:48.301Z,102203.03
2023-02-28T11:01:51.755Z,102209.13
2023-02-28T11:02:53.631Z,102239.91
2023-02-28T11:03:56.489Z,102196.09
2023-02-28T11:04:58.322Z,102202.03
2023-02-28T11:06:07.745Z,102232.84
2023-02-28T11:07:24.448Z,102231.63
2023-02-28T11:08:27.699Z,102210.38
2023-02-28T11:09:39.776Z,102178.63
2023-02-28T11:10:47.266Z,102217.44
2023-02-28T11:11:50.376Z,102207.41
2023-02-28T11:12:57.659Z,102239.66
2023-02-28T11:14:21.986Z,102246.25
2023-02-28T11:15:36.731Z,102227.97
2023-02-28T11:16:39.289Z,102220.34
2023-02-28T11:17:43.320Z,102182.53
2023-02-28T11:18:54.309Z,102248.53
2023-02-28T11:20:04.375Z,102213.75
2023-02-28T11:21:06.955Z,102217.28
2023-02-28T11:22:09.354Z,102235.69
2023-02-28T11:23:15.027Z,102259.28
2023-02-28T11:24:29.956Z,102264.53
2023-02-28T11:25:35.850Z,102273.44
2023-02-28T11:26:40.808Z,102203.72
2023-02-28T11:27:50.578Z,102273.56
2023-02-28T11:29:09.341Z,102279.53
2023-02-28T11:30:25.692Z,102264.94
2023-02-28T11:31:30.900Z,102221.69
2023-02-28T11:32:33.448Z,102222.28
2023-02-28T11:33:47.157Z,102267.97
2023-02-28T11:35:10.414Z,102268.69
2023-02-28T11:36:35.207Z,102272.09
2023-02-28T11:37:38.124Z,102250.41
2023-02-28T11:38:40.046Z,102226.19
2023-02-28T11:39:42.667Z,102233.53
2023-02-28T11:40:59.259Z,102184.72
2023-02-28T11:42:20.878Z,102235.75
2023-02-28T11:43:50.183Z,102258.69
2023-02-28T11:45:04.478Z,102251.13
2023-02-28T11:46:29.375Z,102254.94
2023-02-28T11:47:40.920Z,102201.56
2023-02-28T11:49:03.569Z,102202.53
2023-02-28T11:50:18.766Z,102196.44
2023-02-28T11:51:35.389Z,102244.94
2023-02-28T11:53:02.221Z,102215.78
2023-02-28T11:54:26.445Z,102195.78
2023-02-28T11:55:37.649Z,102244.94
2023-02-28T11:56:47.847Z,102149.88
2023-02-28T11:57:51.474Z,102253.34
2023-02-28T11:59:03.075Z,102239.44
2023-02-28T12:00:16.731Z,102244.78
2023-02-28T12:02:07.341Z,102239.91
2023-02-28T12:03:37.039Z,102245.78
2023-02-28T12:05:11.031Z,102249.19
2023-02-28T12:06:12.841Z,102247.47
2023-02-28T12:07:31.316Z,102211.69
2023-02-28T12:08:44.933Z,102232.84
2023-02-28T12:10:06.628Z,102250.66
2023-02-28T12:11:33.362Z,102245.38
2023-02-28T12:12:38.072Z,102252.50
2023-02-28T12:14:06.576Z,102206.81
2023-02-28T12:15:40.215Z,102257.63
2023-02-28T12:17:03.322Z,102255.03
2023-02-28T12:18:13.754Z,102257.63
2023-02-28T12:19:26.181Z,102250.75
2023-02-28T12:21:02.799Z,102255.03
2023-02-28T12:22:31.649Z,102240.41
2023-02-28T12:23:49.047Z,102249.56
2023-02-28T12:25:15.084Z,102247.88
2023-02-28T12:26:27.803Z,102178.97
2023-02-28T12:27:33.389Z,102203.75
2023-02-28T12:29:01.342Z,102232.47
2023-02-28T12:30:17.401Z,102264.78
2023-02-28T12:31:25.817Z,102213.16
2023-02-28T12:32:42.018Z,102206.44
2023-02-28T12:33:49.000Z,102260.66
2023-02-28T12:34:56.207Z,102223.44
2023-02-28T12:36:03.471Z,102224.72
2023-02-28T12:37:11.523Z,102196.31
2023-02-28T12:38:23.219Z,102255.38
2023-02-28T12:39:36.583Z,102246.50
2023-02-28T12:40:53.662Z,102195.47